Time;durP1;ratioP1;P1;durP2;ratioP2;P2;SDS_P1;SDS_P2;PMS_P1;PMS_P2;Temp;Humidity;BMP_temperature;BMP_pressure;BME280_temperature;BME280_humidity;BME280_pressure;Samples;Min_cycle;Max_cycle;Signal;HPM_P1;HPM_P2
2022/01/06 00:00:10;;;;;;;2.40;1.00;;;18.70;58.30;;;;;;5162327;27;20260;-81
2022/01/06 00:02:37;;;;;;;2.35;1.05;;;18.70;58.70;;;;;;5144678;27;20156;-80
2022/01/06 00:05:03;;;;;;;2.97;1.05;;;18.60;59.00;;;;;;5128261;28;20171;-80
2022/01/06 00:07:29;;;;;;;1.08;0.98;;;18.60;58.60;;;;;;5127808;28;20221;-80
2022/01/06 00:09:56;;;;;;;1.65;1.08;;;18.60;59.10;;;;;;5145344;27;20155;-80
2022/01/06 00:12:28;;;;;;;2.00;1.05;;;18.60;59.40;;;;;;5129141;28;20217;-80
2022/01/06 00:15:03;;;;;;;1.83;1.00;;;18.60;58.90;;;;;;5144342;27;20152;-81
2022/01/06 00:17:44;;;;;;;1.73;0.93;;;18.60;58.60;;;;;;5159485;27;20256;-80
2022/01/06 00:25:33;;;;;;;2.35;1.05;;;18.60;59.00;;;;;;5142332;27;20203;-80
2022/01/06 00:27:58;;;;;;;2.20;0.77;;;18.50;58.70;;;;;;5162637;27;20172;-80
2022/01/06 00:30:24;;;;;;;2.78;1.00;;;18.60;58.80;;;;;;5162000;27;20190;-80
2022/01/06 00:32:51;;;;;;;1.77;1.10;;;18.60;58.90;;;;;;5145166;27;20148;-80
2022/01/06 00:35:20;;;;;;;2.42;1.17;;;18.60;58.80;;;;;;5145180;27;20161;-80
2022/01/06 00:37:46;;;;;;;2.45;1.05;;;18.60;59.10;;;;;;5144607;27;20268;-80
2022/01/06 00:40:13;;;;;;;2.08;1.00;;;18.50;59.10;;;;;;5145183;27;20148;-80
2022/01/06 00:42:41;;;;;;;2.88;1.13;;;18.60;59.10;;;;;;5144702;27;20630;-80
2022/01/06 00:45:07;;;;;;;2.65;1.20;;;18.50;58.70;;;;;;5144100;27;20231;-80
2022/01/06 00:47:35;;;;;;;3.28;1.00;;;18.50;59.00;;;;;;5144856;27;20229;-79
2022/01/06 00:50:04;;;;;;;2.20;1.00;;;18.50;59.20;;;;;;5144798;27;20175;-80
2022/01/06 00:52:29;;;;;;;2.13;1.23;;;18.60;59.10;;;;;;5127409;28;20187;-80
2022/01/06 00:55:03;;;;;;;4.78;1.17;;;18.60;59.00;;;;;;5127569;28;20178;-80
2022/01/06 00:57:29;;;;;;;3.15;1.10;;;18.50;58.90;;;;;;5144070;27;20224;-80
2022/01/06 00:59:55;;;;;;;2.88;1.13;;;18.50;58.90;;;;;;5144353;27;20160;-80
2022/01/06 01:02:22;;;;;;;2.58;1.23;;;18.50;59.20;;;;;;5144450;27;20165;-80
2022/01/06 01:04:49;;;;;;;2.10;1.00;;;18.50;59.40;;;;;;5144342;27;20148;-80
2022/01/06 01:07:15;;;;;;;4.88;1.10;;;18.40;59.30;;;;;;5143723;27;20211;-80
2022/01/06 01:09:41;;;;;;;3.72;1.17;;;18.40;59.20;;;;;;5161118;27;20180;-80
2022/01/06 01:12:11;;;;;;;2.78;0.98;;;18.50;59.30;;;;;;5144600;27;20159;-80
2022/01/06 01:14:58;;;;;;;1.58;0.90;;;18.50;59.30;;;;;;5144129;27;20259;-80
2022/01/06 01:17:31;;;;;;;1.98;1.00;;;18.50;59.40;;;;;;5155937;27;20198;-80
2022/01/06 01:19:57;;;;;;;2.97;1.27;;;18.50;59.00;;;;;;5161658;27;20239;-80
2022/01/06 01:22:23;;;;;;;1.58;0.98;;;18.50;59.20;;;;;;5144248;27;20164;-82
2022/01/06 01:24:50;;;;;;;2.97;1.00;;;18.40;59.20;;;;;;5127815;28;20156;-80
2022/01/06 01:27:20;;;;;;;1.50;1.00;;;18.50;59.40;;;;;;5126937;28;20164;-79
2022/01/06 01:30:08;;;;;;;3.20;1.33;;;18.50;58.90;;;;;;5143462;27;20152;-80
2022/01/06 01:32:38;;;;;;;2.88;0.95;;;18.50;59.30;;;;;;5140526;27;20258;-80
2022/01/06 01:35:06;;;;;;;1.42;1.00;;;18.40;59.20;;;;;;5143193;27;20227;-80
2022/01/06 01:37:32;;;;;;;2.55;1.20;;;18.40;59.20;;;;;;5142944;27;20205;-81
2022/01/06 01:39:58;;;;;;;2.28;1.00;;;18.40;59.30;;;;;;5143959;27;20144;-80
2022/01/06 01:42:26;;;;;;;1.95;0.98;;;18.40;59.40;;;;;;5143702;27;20185;-80
2022/01/06 01:44:52;;;;;;;1.60;1.00;;;18.40;59.20;;;;;;5144082;27;20165;-80
2022/01/06 01:47:29;;;;;;;1.50;1.10;;;18.40;59.00;;;;;;5127665;28;20159;-80
2022/01/06 01:50:09;;;;;;;1.85;1.00;;;18.40;59.10;;;;;;5157905;27;20148;-80
2022/01/06 01:52:37;;;;;;;2.05;0.98;;;18.40;59.10;;;;;;5126809;28;20152;-80
2022/01/06 01:55:05;;;;;;;1.35;0.80;;;18.50;59.40;;;;;;5160964;27;20148;-80
2022/01/06 01:57:31;;;;;;;1.98;1.00;;;18.40;59.00;;;;;;5142831;27;20224;-80
2022/01/06 01:59:57;;;;;;;1.65;1.00;;;18.40;59.30;;;;;;5125590;28;20168;-80
2022/01/06 02:02:23;;;;;;;1.98;1.00;;;18.40;59.00;;;;;;5143112;27;20216;-80
2022/01/06 02:04:53;;;;;;;1.55;1.10;;;18.40;59.20;;;;;;5143050;27;20149;-80
2022/01/06 02:07:19;;;;;;;1.15;0.90;;;18.40;59.40;;;;;;5160195;27;20152;-80
2022/01/06 02:09:45;;;;;;;1.95;1.02;;;18.40;59.10;;;;;;5143547;27;20675;-80
2022/01/06 02:12:23;;;;;;;1.92;1.10;;;18.40;59.30;;;;;;5160574;27;20215;-80
2022/01/06 02:14:51;;;;;;;3.08;1.05;;;18.40;59.30;;;;;;5125855;28;20163;-80
2022/01/06 02:17:18;;;;;;;1.85;0.85;;;18.40;59.10;;;;;;5126985;28;20220;-80
2022/01/06 02:20:05;;;;;;;2.78;1.25;;;18.40;59.00;;;;;;5142997;27;20160;-80
2022/01/06 02:22:31;;;;;;;1.38;0.88;;;18.40;59.20;;;;;;5143622;27;20168;-80
2022/01/06 02:25:00;;;;;;;2.15;1.00;;;18.40;59.30;;;;;;5160165;27;20212;-79
2022/01/06 02:27:27;;;;;;;2.50;0.98;;;18.40;59.00;;;;;;5142858;28;20164;-79
2022/01/06 02:29:54;;;;;;;2.15;1.10;;;18.40;59.30;;;;;;5142538;28;20148;-79
2022/01/06 02:32:22;;;;;;;1.75;1.25;;;18.30;59.40;;;;;;5160137;27;20239;-79
2022/01/06 02:34:48;;;;;;;1.95;1.17;;;18.30;59.20;;;;;;5159645;27;20144;-80
2022/01/06 02:37:14;;;;;;;3.70;1.25;;;18.40;59.40;;;;;;5125492;28;20208;-79
2022/01/06 02:39:41;;;;;;;1.55;1.02;;;18.30;59.30;;;;;;5142516;28;20148;-79
2022/01/06 02:42:07;;;;;;;1.23;1.10;;;18.30;59.30;;;;;;5143727;28;20198;-80
2022/01/06 02:44:37;;;;;;;2.08;0.88;;;18.30;59.20;;;;;;5160010;27;20164;-79
2022/01/06 02:47:03;;;;;;;2.25;1.10;;;18.30;59.30;;;;;;5143731;27;20151;-79
2022/01/06 02:49:29;;;;;;;2.80;1.10;;;18.30;58.90;;;;;;5147386;27;20172;-79
2022/01/06 02:51:55;;;;;;;2.00;1.02;;;18.30;59.20;;;;;;5163570;27;20152;-79
2022/01/06 02:54:21;;;;;;;1.00;0.88;;;18.40;59.10;;;;;;5163902;27;20521;-79
2022/01/06 02:56:48;;;;;;;1.65;0.98;;;18.40;59.10;;;;;;5130177;28;20227;-79
2022/01/06 02:59:16;;;;;;;3.08;0.90;;;18.30;59.20;;;;;;5130718;28;20191;-79
2022/01/06 03:01:43;;;;;;;4.18;1.10;;;18.40;58.80;;;;;;5131075;28;20243;-79
2022/01/06 03:04:11;;;;;;;1.67;1.02;;;18.40;58.90;;;;;;5163848;27;20160;-79
2022/01/06 03:06:37;;;;;;;2.55;0.93;;;18.30;59.00;;;;;;5146494;27;20155;-79
2022/01/06 03:09:04;;;;;;;3.25;1.25;;;18.30;59.00;;;;;;5164007;27;20152;-79
2022/01/06 03:11:32;;;;;;;1.20;0.90;;;18.40;58.60;;;;;;5163639;27;20164;-79
2022/01/06 03:13:58;;;;;;;1.40;0.93;;;18.30;59.00;;;;;;5146865;27;20153;-79
2022/01/06 03:16:24;;;;;;;0.98;0.90;;;18.30;58.80;;;;;;5163766;27;20175;-80
2022/01/06 03:18:50;;;;;;;1.50;0.90;;;18.30;58.70;;;;;;5130549;28;20192;-79
2022/01/06 03:21:15;;;;;;;1.50;1.10;;;18.30;58.90;;;;;;5129364;28;20171;-79
2022/01/06 03:23:50;;;;;;;2.08;1.23;;;18.30;58.90;;;;;;5146011;27;20168;-79
2022/01/06 03:26:16;;;;;;;4.18;1.10;;;18.30;59.20;;;;;;5163977;27;20159;-79
2022/01/06 03:28:43;;;;;;;1.55;1.02;;;18.30;58.90;;;;;;5129170;28;20190;-79
2022/01/06 03:31:08;;;;;;;1.40;1.02;;;18.40;59.30;;;;;;5146323;27;20255;-79
2022/01/06 03:33:34;;;;;;;2.22;1.00;;;18.30;59.00;;;;;;5163167;27;20218;-79
2022/01/06 03:36:00;;;;;;;2.35;0.88;;;18.30;58.80;;;;;;5130235;28;20553;-80
2022/01/06 03:38:26;;;;;;;1.45;0.90;;;18.30;59.00;;;;;;5163225;27;20248;-79
2022/01/06 03:40:53;;;;;;;1.75;1.10;;;18.40;59.10;;;;;;5146058;27;20167;-79
2022/01/06 03:43:19;;;;;;;1.65;0.75;;;18.30;58.90;;;;;;5146427;27;20197;-80
2022/01/06 03:45:45;;;;;;;4.22;1.00;;;18.30;59.10;;;;;;5128603;28;20164;-79
2022/01/06 03:48:11;;;;;;;1.95;1.00;;;18.30;59.20;;;;;;5129424;28;20231;-79
2022/01/06 03:50:36;;;;;;;1.40;0.90;;;18.20;58.80;;;;;;5145995;27;20199;-79
2022/01/06 03:53:02;;;;;;;1.38;0.88;;;18.30;58.90;;;;;;5163323;27;20167;-79
2022/01/06 03:55:28;;;;;;;2.13;1.08;;;18.30;59.10;;;;;;5130963;27;20514;-80
2022/01/06 03:57:53;;;;;;;2.42;1.00;;;18.40;59.00;;;;;;5166507;27;20249;-79
2022/01/06 04:00:20;;;;;;;1.88;1.23;;;18.30;59.20;;;;;;5166104;27;20220;-80
2022/01/06 04:02:49;;;;;;;1.70;0.90;;;18.30;58.90;;;;;;5166610;27;20152;-79
2022/01/06 04:05:16;;;;;;;0.90;0.90;;;18.20;58.90;;;;;;5150865;27;20223;-79
2022/01/06 04:07:42;;;;;;;2.58;1.00;;;18.30;59.10;;;;;;5166257;27;20158;-79
2022/01/06 04:10:09;;;;;;;1.38;0.90;;;18.30;59.20;;;;;;5149555;27;20459;-79
2022/01/06 04:12:36;;;;;;;1.63;0.82;;;18.30;58.90;;;;;;5149995;27;20493;-79
2022/01/06 04:15:04;;;;;;;0.95;0.85;;;18.30;58.70;;;;;;5165763;27;20158;-80
2022/01/06 04:17:33;;;;;;;1.75;0.93;;;18.30;59.20;;;;;;5148285;27;20171;-79
2022/01/06 04:19:58;;;;;;;1.80;0.73;;;18.30;58.30;;;;;;5166276;27;20190;-79
2022/01/06 04:22:24;;;;;;;0.77;0.68;;;18.30;57.70;;;;;;5149574;27;20155;-81
2022/01/06 04:24:50;;;;;;;1.25;0.80;;;18.40;56.40;;;;;;5131481;27;20652;-80
2022/01/06 04:27:16;;;;;;;1.48;1.00;;;18.40;57.70;;;;;;5164961;27;20192;-79
2022/01/06 04:29:43;;;;;;;1.95;1.10;;;18.50;57.50;;;;;;5165798;27;20156;-80
2022/01/06 04:32:09;;;;;;;2.10;0.98;;;18.40;57.60;;;;;;5166086;27;20144;-79
2022/01/06 04:34:34;;;;;;;1.08;0.88;;;18.50;57.70;;;;;;5130735;27;20179;-80
2022/01/06 04:37:01;;;;;;;1.45;0.85;;;18.50;57.20;;;;;;5149079;27;20152;-79
2022/01/06 04:39:28;;;;;;;1.17;0.88;;;18.50;56.80;;;;;;5166018;27;20187;-79
2022/01/06 04:41:54;;;;;;;2.17;1.05;;;18.50;56.90;;;;;;5149460;27;20170;-81
2022/01/06 04:44:23;;;;;;;2.13;0.90;;;18.60;56.60;;;;;;5131201;27;20156;-79
2022/01/06 04:46:50;;;;;;;1.45;1.00;;;18.60;56.80;;;;;;5130800;27;20228;-80
2022/01/06 04:49:16;;;;;;;1.45;0.90;;;18.60;56.70;;;;;;5149005;27;20166;-80
2022/01/06 04:51:47;;;;;;;1.20;0.82;;;18.70;56.70;;;;;;5165609;27;20155;-79
2022/01/06 04:54:15;;;;;;;0.88;0.80;;;18.60;56.50;;;;;;5149113;27;20159;-79
2022/01/06 04:56:41;;;;;;;2.45;1.13;;;18.70;56.70;;;;;;5148537;27;20219;-79
2022/01/06 04:59:08;;;;;;;1.90;0.90;;;18.70;56.60;;;;;;5147689;27;20202;-79
2022/01/06 05:01:36;;;;;;;1.98;0.93;;;18.60;56.70;;;;;;5147757;27;20230;-80
2022/01/06 05:04:09;;;;;;;1.48;0.90;;;18.70;56.60;;;;;;5147527;27;20208;-79
2022/01/06 05:06:36;;;;;;;1.52;0.82;;;18.70;56.50;;;;;;5147853;27;20238;-80
2022/01/06 05:09:04;;;;;;;1.25;1.00;;;18.70;56.30;;;;;;5149251;27;20156;-79
2022/01/06 05:11:29;;;;;;;2.00;1.02;;;18.70;56.10;;;;;;5129880;27;20172;-79
2022/01/06 05:13:56;;;;;;;3.20;1.00;;;18.70;56.40;;;;;;5164874;27;20186;-79
2022/01/06 05:16:23;;;;;;;1.40;0.80;;;18.70;56.10;;;;;;5148805;27;20162;-79
2022/01/06 05:18:50;;;;;;;1.77;0.80;;;18.80;56.20;;;;;;5148014;27;20179;-79
2022/01/06 05:21:16;;;;;;;1.45;0.85;;;18.80;55.60;;;;;;5164850;27;20152;-79
2022/01/06 05:23:41;;;;;;;1.55;0.80;;;18.80;55.50;;;;;;5164390;27;20262;-79
2022/01/06 05:26:08;;;;;;;1.10;0.98;;;18.80;55.70;;;;;;5148856;27;20558;-79
2022/01/06 05:28:35;;;;;;;1.80;0.90;;;18.80;55.70;;;;;;5147066;27;20266;-79
2022/01/06 05:31:02;;;;;;;1.23;1.00;;;18.80;55.70;;;;;;5147118;27;20163;-79
2022/01/06 05:33:29;;;;;;;1.05;0.82;;;18.80;55.40;;;;;;5129708;27;20159;-80
2022/01/06 05:35:55;;;;;;;1.42;1.00;;;18.80;55.50;;;;;;5129376;27;20227;-80
2022/01/06 05:38:21;;;;;;;1.33;0.60;;;18.80;55.70;;;;;;5165111;27;20183;-80
2022/01/06 05:40:49;;;;;;;1.67;0.85;;;18.80;55.20;;;;;;5164211;27;20187;-80
2022/01/06 05:43:15;;;;;;;0.77;0.65;;;18.80;55.40;;;;;;5164667;27;20143;-79
2022/01/06 05:45:40;;;;;;;1.27;0.88;;;18.90;55.60;;;;;;5164617;27;20162;-79
2022/01/06 05:48:07;;;;;;;1.20;0.80;;;18.90;55.50;;;;;;5129562;27;20182;-80
2022/01/06 05:50:34;;;;;;;2.20;0.88;;;18.90;55.40;;;;;;5147474;27;20152;-81
2022/01/06 05:52:59;;;;;;;0.98;0.70;;;18.90;55.30;;;;;;5147593;27;20171;-80
2022/01/06 05:55:25;;;;;;;1.13;0.77;;;18.80;55.30;;;;;;5144740;27;20163;-81
2022/01/06 05:57:50;;;;;;;1.33;0.90;;;18.80;55.10;;;;;;5138786;27;20638;-80
2022/01/06 06:00:19;;;;;;;0.85;0.80;;;18.90;55.00;;;;;;5160593;27;20163;-80
2022/01/06 06:02:48;;;;;;;0.93;0.70;;;18.90;55.20;;;;;;5126446;28;20159;-82
2022/01/06 06:05:14;;;;;;;1.08;0.95;;;18.90;54.90;;;;;;5126925;28;20175;-80
2022/01/06 06:07:39;;;;;;;1.05;0.80;;;18.90;54.60;;;;;;5126044;28;20168;-81
2022/01/06 06:10:05;;;;;;;1.30;0.90;;;19.00;55.00;;;;;;5125573;28;20160;-80
2022/01/06 06:12:33;;;;;;;0.70;0.68;;;18.90;55.00;;;;;;5108303;28;20172;-81
2022/01/06 06:15:00;;;;;;;1.27;0.90;;;18.90;54.90;;;;;;5124544;28;20148;-80
2022/01/06 06:17:25;;;;;;;2.35;0.90;;;19.00;54.90;;;;;;5124601;28;20156;-80
2022/01/06 06:19:52;;;;;;;1.30;1.00;;;19.00;54.60;;;;;;5126111;28;20171;-80
2022/01/06 06:22:18;;;;;;;0.80;0.70;;;19.00;54.40;;;;;;5126058;28;20598;-80
2022/01/06 06:24:46;;;;;;;1.65;0.95;;;19.00;54.50;;;;;;5127206;28;20156;-80
2022/01/06 06:27:12;;;;;;;1.75;0.80;;;18.90;54.60;;;;;;5125923;28;20159;-80
2022/01/06 06:29:39;;;;;;;3.33;1.00;;;19.00;54.60;;;;;;5126785;28;20163;-80
2022/01/06 06:32:06;;;;;;;3.10;1.15;;;19.00;54.50;;;;;;5125006;28;20156;-80
2022/01/06 06:34:33;;;;;;;2.78;0.80;;;19.00;54.60;;;;;;5125288;28;20237;-79
2022/01/06 06:36:59;;;;;;;1.27;0.73;;;19.00;54.40;;;;;;5107718;28;20186;-79
2022/01/06 06:39:25;;;;;;;3.60;0.80;;;19.00;54.20;;;;;;5108186;28;20566;-80
2022/01/06 06:41:52;;;;;;;5.88;1.02;;;19.00;54.20;;;;;;5108790;28;20167;-79
2022/01/06 06:44:19;;;;;;;4.85;1.08;;;19.00;54.20;;;;;;5108594;28;20175;-81
2022/01/06 06:46:47;;;;;;;3.28;1.08;;;19.00;54.00;;;;;;5125733;28;20164;-80
2022/01/06 06:49:12;;;;;;;5.10;1.05;;;19.10;54.10;;;;;;5142248;27;20179;-80
2022/01/06 06:51:38;;;;;;;5.05;1.13;;;19.00;54.10;;;;;;5107283;28;20170;-80
2022/01/06 06:54:06;;;;;;;5.72;0.90;;;19.00;53.80;;;;;;5143503;27;20548;-80
2022/01/06 06:56:32;;;;;;;6.68;1.10;;;19.00;54.70;;;;;;5135733;28;20211;-80
2022/01/06 06:58:58;;;;;;;8.27;0.90;;;19.10;54.10;;;;;;5107983;28;20210;-80
2022/01/06 07:01:23;;;;;;;7.00;1.08;;;19.00;54.00;;;;;;5126055;28;20231;-81
2022/01/06 07:03:51;;;;;;;5.68;1.00;;;19.00;54.10;;;;;;5107928;28;20164;-79
2022/01/06 07:06:17;;;;;;;8.25;1.40;;;19.00;53.90;;;;;;5126042;28;20174;-80
2022/01/06 07:08:42;;;;;;;11.15;1.30;;;19.00;53.60;;;;;;5088762;28;20243;-79
2022/01/06 07:11:09;;;;;;;15.23;1.65;;;19.10;53.70;;;;;;5105262;28;20153;-80
2022/01/06 07:13:34;;;;;;;9.35;1.30;;;19.10;53.70;;;;;;5104629;28;20172;-80
2022/01/06 07:16:01;;;;;;;10.93;1.30;;;19.10;53.70;;;;;;5104416;28;20187;-78
2022/01/06 07:18:29;;;;;;;8.25;1.20;;;19.10;53.70;;;;;;5122829;28;20200;-80
2022/01/06 07:20:54;;;;;;;8.85;1.80;;;19.10;53.70;;;;;;5106931;28;20219;-80
2022/01/06 07:23:20;;;;;;;9.95;1.75;;;19.10;53.60;;;;;;5104263;28;20165;-80
2022/01/06 07:25:47;;;;;;;10.75;1.40;;;19.10;53.50;;;;;;5124526;28;20178;-80
2022/01/06 07:28:12;;;;;;;16.63;1.90;;;19.10;53.50;;;;;;5107066;28;20231;-79
2022/01/06 07:30:38;;;;;;;11.30;1.38;;;19.10;53.80;;;;;;5123959;28;20191;-79
2022/01/06 07:33:03;;;;;;;13.02;1.60;;;19.10;53.50;;;;;;5126180;28;20160;-80
2022/01/06 07:35:29;;;;;;;12.23;1.33;;;19.10;53.60;;;;;;5136159;27;20317;-79
2022/01/06 07:37:55;;;;;;;12.07;1.60;;;19.10;53.50;;;;;;5094257;28;20180;-79
2022/01/06 07:40:21;;;;;;;12.18;1.50;;;19.10;53.40;;;;;;5109269;28;20157;-79
2022/01/06 07:42:47;;;;;;;12.60;1.42;;;19.10;53.40;;;;;;5089705;28;20183;-79
2022/01/06 07:45:17;;;;;;;10.38;1.63;;;19.10;53.40;;;;;;5110816;28;20523;-79
2022/01/06 07:47:55;;;;;;;17.10;1.70;;;19.10;53.40;;;;;;5110568;28;20164;-79
2022/01/06 07:50:24;;;;;;;12.98;1.98;;;19.10;53.30;;;;;;5143120;27;20179;-79
2022/01/06 07:52:49;;;;;;;11.60;1.30;;;19.10;53.20;;;;;;5115539;28;20231;-79
2022/01/06 07:55:15;;;;;;;8.57;1.15;;;19.10;53.20;;;;;;5122735;28;20519;-80
2022/01/06 07:57:41;;;;;;;10.80;1.20;;;19.00;53.30;;;;;;5137912;27;20755;-79
2022/01/06 08:00:10;;;;;;;7.25;1.15;;;19.10;52.90;;;;;;5104317;28;20311;-78
2022/01/06 08:02:36;;;;;;;7.38;1.10;;;19.10;52.90;;;;;;5104511;28;20161;-80
2022/01/06 08:05:03;;;;;;;7.90;1.27;;;19.10;53.00;;;;;;5088718;28;20157;-80
2022/01/06 08:07:30;;;;;;;11.90;1.30;;;19.10;52.90;;;;;;5108750;28;20171;-79
2022/01/06 08:09:56;;;;;;;9.38;1.30;;;19.10;53.70;;;;;;5120827;28;20153;-80
2022/01/06 08:12:21;;;;;;;6.10;1.10;;;19.10;53.70;;;;;;5103591;28;20163;-80
2022/01/06 08:14:47;;;;;;;7.32;1.13;;;19.10;53.20;;;;;;5088169;28;20172;-79
2022/01/06 08:17:15;;;;;;;9.90;1.55;;;19.10;53.40;;;;;;5115347;28;20164;-78
2022/01/06 08:19:41;;;;;;;13.93;1.50;;;19.10;53.80;;;;;;5124319;28;20263;-79
2022/01/06 08:22:08;;;;;;;5.25;1.20;;;19.20;53.00;;;;;;5125041;28;20171;-81
2022/01/06 08:24:34;;;;;;;11.98;1.23;;;19.20;52.80;;;;;;5124925;28;20156;-81
2022/01/06 08:27:03;;;;;;;10.55;1.50;;;19.20;53.50;;;;;;5127620;28;20148;-81
2022/01/06 08:29:29;;;;;;;8.93;1.55;;;19.20;53.60;;;;;;5127388;28;20150;-80
2022/01/06 08:31:55;;;;;;;4.88;1.30;;;19.20;54.00;;;;;;5125496;28;20163;-80
2022/01/06 08:34:21;;;;;;;8.32;1.20;;;19.20;53.70;;;;;;5107901;28;20209;-81
2022/01/06 08:36:52;;;;;;;5.82;1.00;;;19.20;53.80;;;;;;5125329;28;20156;-80
2022/01/06 08:39:19;;;;;;;6.80;1.10;;;19.20;53.10;;;;;;5117380;27;20189;-82
2022/01/06 08:41:44;;;;;;;12.80;1.27;;;19.30;53.10;;;;;;5126179;27;20259;-81
2022/01/06 08:44:11;;;;;;;5.40;1.10;;;19.30;53.00;;;;;;5102806;28;20200;-82
2022/01/06 08:46:37;;;;;;;5.47;1.20;;;19.30;53.10;;;;;;5138609;27;20164;-81
2022/01/06 08:49:04;;;;;;;6.38;1.50;;;19.30;53.00;;;;;;5129359;27;20172;-80
2022/01/06 08:51:31;;;;;;;3.97;1.08;;;19.30;52.80;;;;;;5105393;28;20149;-80
2022/01/06 08:53:56;;;;;;;5.03;1.02;;;19.40;52.50;;;;;;5104491;28;20165;-79
2022/01/06 08:56:22;;;;;;;9.18;1.08;;;19.40;52.30;;;;;;5110827;28;20627;-80
2022/01/06 08:58:50;;;;;;;3.17;0.95;;;19.30;52.20;;;;;;5105495;28;20215;-81
2022/01/06 09:01:18;;;;;;;2.28;0.93;;;19.40;51.90;;;;;;5142625;27;20186;-80
2022/01/06 09:03:45;;;;;;;4.97;1.20;;;19.40;51.90;;;;;;5110238;27;20224;-80
2022/01/06 09:06:12;;;;;;;5.20;1.20;;;19.40;51.70;;;;;;5128715;27;20163;-80
2022/01/06 09:08:41;;;;;;;5.82;0.80;;;19.30;51.60;;;;;;5127841;27;20155;-80
2022/01/06 09:11:07;;;;;;;4.22;0.77;;;19.50;51.50;;;;;;5110043;27;20175;-81
2022/01/06 09:13:34;;;;;;;2.30;0.95;;;19.40;51.70;;;;;;5129222;27;20163;-80
2022/01/06 09:16:01;;;;;;;2.25;0.80;;;19.40;51.90;;;;;;5145634;27;20657;-80
2022/01/06 09:18:33;;;;;;;6.72;1.27;;;19.40;51.90;;;;;;5128451;27;20182;-83
2022/01/06 09:21:00;;;;;;;9.25;1.00;;;19.40;51.60;;;;;;5086652;28;20184;-81
2022/01/06 09:23:25;;;;;;;3.17;0.90;;;19.40;52.40;;;;;;5084060;28;20184;-81
2022/01/06 09:25:56;;;;;;;2.90;1.00;;;19.50;53.30;;;;;;5085194;28;20215;-81
2022/01/06 09:28:28;;;;;;;8.27;1.05;;;19.50;53.00;;;;;;5099758;28;20165;-81
2022/01/06 09:30:56;;;;;;;5.90;1.15;;;19.50;53.30;;;;;;5071128;28;20164;-82
2022/01/06 09:33:23;;;;;;;6.80;1.30;;;19.50;53.30;;;;;;5069460;28;20177;-81
2022/01/06 09:35:50;;;;;;;4.50;1.10;;;19.50;53.10;;;;;;5069128;28;20171;-81
2022/01/06 09:38:17;;;;;;;4.47;1.05;;;19.50;53.10;;;;;;5085191;28;20590;-80
2022/01/06 09:40:43;;;;;;;8.95;1.00;;;19.50;53.40;;;;;;5102047;28;20334;-80
2022/01/06 09:43:12;;;;;;;5.18;1.00;;;19.50;52.90;;;;;;5109323;28;20243;-81
2022/01/06 09:45:39;;;;;;;8.95;1.33;;;19.50;52.60;;;;;;5068529;28;20187;-81
2022/01/06 09:48:05;;;;;;;5.82;1.05;;;19.50;52.80;;;;;;5070454;28;20203;-82
2022/01/06 09:50:31;;;;;;;3.25;0.80;;;19.60;53.30;;;;;;5068316;28;20209;-81
2022/01/06 09:52:58;;;;;;;4.10;1.27;;;19.50;52.30;;;;;;5102209;28;20171;-80
2022/01/06 09:55:24;;;;;;;3.78;1.30;;;19.50;52.50;;;;;;5085971;28;20164;-82
2022/01/06 09:57:57;;;;;;;7.38;1.25;;;19.50;52.50;;;;;;5067267;28;20205;-80
2022/01/06 10:00:24;;;;;;;5.43;1.05;;;19.50;52.40;;;;;;5049824;28;20184;-81
2022/01/06 10:02:58;;;;;;;5.40;1.30;;;19.50;52.70;;;;;;5066164;28;20317;-81
2022/01/06 10:05:24;;;;;;;8.32;1.30;;;19.50;52.70;;;;;;5066365;28;20268;-80
2022/01/06 10:07:53;;;;;;;10.38;1.20;;;19.40;52.80;;;;;;5066740;28;20165;-81
2022/01/06 10:10:24;;;;;;;7.88;1.17;;;19.40;52.90;;;;;;5083302;28;20177;-80
2022/01/06 10:12:58;;;;;;;7.90;1.60;;;19.50;53.00;;;;;;5050112;28;20169;-81
2022/01/06 10:15:31;;;;;;;13.73;1.67;;;19.50;53.30;;;;;;5066162;28;20161;-81
2022/01/06 10:17:57;;;;;;;7.97;1.58;;;19.50;53.40;;;;;;5048270;28;20283;-81
2022/01/06 10:20:26;;;;;;;12.13;1.55;;;19.50;53.40;;;;;;5064720;28;20196;-82
2022/01/06 10:22:55;;;;;;;6.55;1.20;;;19.40;53.70;;;;;;5047397;28;20173;-81
2022/01/06 10:25:30;;;;;;;10.18;1.40;;;19.40;53.70;;;;;;5048651;28;20161;-81
2022/01/06 10:27:59;;;;;;;9.70;1.40;;;19.50;53.00;;;;;;5062513;28;20179;-80
2022/01/06 10:30:26;;;;;;;17.42;1.50;;;19.50;53.10;;;;;;5079970;28;20192;-81
2022/01/06 10:32:56;;;;;;;9.88;1.20;;;19.50;53.30;;;;;;5079330;28;20157;-80
2022/01/06 10:35:25;;;;;;;10.65;1.50;;;19.50;53.50;;;;;;5098147;28;20158;-82
2022/01/06 10:37:54;;;;;;;8.60;1.40;;;19.50;53.30;;;;;;5098095;28;20215;-82
2022/01/06 10:40:24;;;;;;;7.88;1.58;;;19.50;53.40;;;;;;5113495;28;20159;-82
2022/01/06 10:42:54;;;;;;;8.93;1.50;;;19.50;53.30;;;;;;5119624;28;20229;-82
2022/01/06 10:45:25;;;;;;;8.57;1.50;;;19.50;53.40;;;;;;5105200;28;20164;-82
2022/01/06 10:47:55;;;;;;;10.27;1.65;;;19.50;53.30;;;;;;5120495;28;20152;-81
2022/01/06 10:50:31;;;;;;;13.27;1.40;;;19.50;53.90;;;;;;5109948;28;20225;-82
2022/01/06 10:53:00;;;;;;;12.88;1.52;;;19.50;53.70;;;;;;5116675;28;20164;-80
2022/01/06 10:55:31;;;;;;;15.68;1.40;;;19.50;53.70;;;;;;5083080;28;20206;-83
2022/01/06 10:58:02;;;;;;;13.65;1.90;;;19.50;54.00;;;;;;5064556;28;20299;-82
2022/01/06 11:00:39;;;;;;;14.68;1.75;;;19.50;54.30;;;;;;5101176;28;20152;-82
2022/01/06 11:03:11;;;;;;;13.02;1.48;;;19.50;53.80;;;;;;5119685;28;20159;-80
2022/01/06 11:05:45;;;;;;;10.00;1.60;;;19.50;52.70;;;;;;5121193;28;20200;-80
2022/01/06 11:08:12;;;;;;;13.68;2.05;;;19.50;53.30;;;;;;5104309;28;20146;-81
2022/01/06 11:10:46;;;;;;;16.88;1.70;;;19.60;53.80;;;;;;5087306;28;20164;-82
2022/01/06 11:13:11;;;;;;;11.20;1.70;;;19.60;53.40;;;;;;5105677;28;20254;-81
2022/01/06 11:16:02;;;;;;;;;;;;;;;;;;;;;
2022/01/06 11:18:28;;;;;;;11.60;1.73;;;19.60;54.00;;;;;;5090371;28;20627;-81
2022/01/06 11:21:09;;;;;;;12.60;1.73;;;19.50;53.80;;;;;;5107689;28;20187;-81
2022/01/06 11:23:35;;;;;;;14.38;1.85;;;19.50;52.80;;;;;;5107437;28;20167;-81
2022/01/06 11:26:32;;;;;;;13.88;1.80;;;19.60;53.80;;;;;;5107991;28;20231;-82
2022/01/06 11:28:59;;;;;;;12.38;1.55;;;19.60;54.00;;;;;;5091946;28;20176;-80
2022/01/06 11:31:27;;;;;;;12.45;1.50;;;19.60;53.90;;;;;;5107646;28;20199;-82
2022/01/06 11:33:56;;;;;;;21.33;2.03;;;19.60;54.10;;;;;;5110216;28;20566;-80
2022/01/06 11:36:31;;;;;;;12.45;1.30;;;19.50;53.70;;;;;;5108238;28;20236;-80
2022/01/06 11:38:58;;;;;;;6.50;1.35;;;19.60;53.20;;;;;;5108607;28;20252;-82
2022/01/06 11:41:31;;;;;;;8.10;1.50;;;19.50;53.40;;;;;;5109414;28;20247;-81
2022/01/06 11:44:02;;;;;;;9.13;1.40;;;19.50;53.40;;;;;;5109092;28;20245;-80
2022/01/06 11:46:45;;;;;;;11.13;1.33;;;19.50;52.60;;;;;;5109563;28;20259;-79
2022/01/06 11:49:10;;;;;;;12.80;1.60;;;19.50;52.20;;;;;;5092270;28;20244;-80
2022/01/06 11:51:37;;;;;;;11.05;1.40;;;19.50;52.40;;;;;;5092170;28;20664;-82
2022/01/06 11:54:19;;;;;;;7.78;1.35;;;19.50;53.00;;;;;;5108770;28;20145;-80
2022/01/06 11:56:47;;;;;;;12.13;1.40;;;19.50;52.70;;;;;;5099851;28;20220;-82
2022/01/06 11:59:14;;;;;;;12.43;1.50;;;19.50;53.30;;;;;;5101923;28;20232;-82
2022/01/06 12:01:47;;;;;;;14.40;1.80;;;19.50;54.40;;;;;;5136892;27;20164;-81
2022/01/06 12:04:15;;;;;;;7.32;1.30;;;19.50;53.30;;;;;;5138063;27;20613;-80
2022/01/06 12:06:41;;;;;;;10.38;1.80;;;19.50;52.30;;;;;;5104470;28;20150;-79
2022/01/06 12:09:14;;;;;;;6.97;1.35;;;19.50;54.20;;;;;;5134847;27;20168;-81
2022/01/06 12:11:40;;;;;;;9.40;1.40;;;19.50;53.00;;;;;;5120149;28;20184;-80
2022/01/06 12:14:07;;;;;;;12.82;1.27;;;19.50;53.10;;;;;;5104588;28;20177;-80
2022/01/06 12:16:35;;;;;;;7.63;1.40;;;19.60;53.50;;;;;;5118011;27;20168;-80
2022/01/06 12:19:14;;;;;;;5.15;1.00;;;19.60;52.60;;;;;;5137905;27;20244;-81
2022/01/06 12:21:39;;;;;;;10.82;1.33;;;19.50;53.10;;;;;;5140228;27;20239;-80
2022/01/06 12:24:07;;;;;;;13.75;2.58;;;19.60;53.20;;;;;;5143158;27;20221;-81
2022/01/06 12:26:33;;;;;;;10.20;1.58;;;19.60;53.20;;;;;;5140784;27;20171;-78
2022/01/06 12:28:59;;;;;;;6.95;1.50;;;19.60;53.70;;;;;;5158111;27;20172;-80
2022/01/06 12:31:29;;;;;;;7.75;1.27;;;19.50;53.50;;;;;;5159274;27;20196;-82
2022/01/06 12:34:03;;;;;;;10.70;1.48;;;19.50;53.60;;;;;;5126765;28;20286;-82
2022/01/06 12:36:32;;;;;;;11.48;1.40;;;19.60;53.00;;;;;;5160929;27;20172;-77
2022/01/06 12:38:58;;;;;;;9.88;1.30;;;19.60;53.00;;;;;;5159238;27;20180;-79
2022/01/06 12:41:27;;;;;;;12.52;1.90;;;19.60;53.30;;;;;;5125357;28;20239;-79
2022/01/06 12:43:55;;;;;;;6.50;1.20;;;19.60;53.40;;;;;;5128141;27;20179;-79
2022/01/06 12:46:41;;;;;;;9.55;1.10;;;19.60;53.10;;;;;;5121471;28;20164;-79
2022/01/06 12:49:09;;;;;;;9.27;1.77;;;19.60;53.00;;;;;;5138776;27;20168;-79
2022/01/06 12:51:37;;;;;;;7.55;1.33;;;19.60;53.30;;;;;;5143317;27;20239;-79
2022/01/06 12:54:08;;;;;;;9.48;1.83;;;19.60;52.60;;;;;;5124002;27;20207;-79